Time;durP1;ratioP1;P1;durP2;ratioP2;P2;SDS_P1;SDS_P2;PMS_P1;PMS_P2;Temp;Humidity;BMP_temperature;BMP_pressure;BME280_temperature;BME280_humidity;BME280_pressure;Samples;Min_cycle;Max_cycle;Signal;HPM_P1;HPM_P2
2021/08/08 00:01:30;;;;;;;3.60;2.97;;;16.10;99.90;;;;;;5044525;28;20203;-48
2021/08/08 00:03:57;;;;;;;4.30;2.80;;;16.10;99.90;;;;;;5041886;28;20238;-48
2021/08/08 00:06:25;;;;;;;7.10;3.10;;;16.10;99.90;;;;;;5041758;28;20363;-44
2021/08/08 00:08:51;;;;;;;3.67;3.10;;;16.10;99.90;;;;;;5042260;28;20215;-43
2021/08/08 00:11:18;;;;;;;3.40;2.60;;;16.10;99.90;;;;;;5040308;28;20191;-45
2021/08/08 00:13:45;;;;;;;3.13;2.60;;;16.20;99.90;;;;;;5027616;28;20677;-43
2021/08/08 00:16:11;;;;;;;3.37;2.73;;;16.20;99.90;;;;;;5038783;28;20198;-41
2021/08/08 00:18:39;;;;;;;4.57;2.67;;;16.20;99.90;;;;;;5043221;28;20210;-42
2021/08/08 00:21:06;;;;;;;3.63;2.50;;;16.20;99.90;;;;;;5039278;28;20207;-44
2021/08/08 00:23:34;;;;;;;3.37;2.60;;;16.20;99.90;;;;;;5042886;28;20195;-42
2021/08/08 00:26:00;;;;;;;3.00;2.17;;;16.20;99.90;;;;;;5040775;28;20195;-43
2021/08/08 00:28:27;;;;;;;2.53;2.33;;;16.20;99.90;;;;;;5025727;28;20960;-43
2021/08/08 00:30:53;;;;;;;4.00;2.67;;;16.20;99.90;;;;;;5044475;28;20187;-42
2021/08/08 00:33:20;;;;;;;2.40;2.20;;;16.20;99.90;;;;;;5046203;28;20938;-45
2021/08/08 00:35:48;;;;;;;2.60;1.80;;;16.20;99.90;;;;;;5046589;28;20195;-41
2021/08/08 00:38:22;;;;;;;4.43;2.10;;;16.20;99.90;;;;;;5044773;28;20394;-47
2021/08/08 00:40:50;;;;;;;2.20;2.10;;;16.20;99.90;;;;;;5046219;28;20218;-42
2021/08/08 00:43:16;;;;;;;3.00;2.30;;;16.20;99.90;;;;;;5021374;28;22130;-42
2021/08/08 00:45:47;;;;;;;4.37;3.00;;;16.20;99.90;;;;;;5039669;28;20591;-42
2021/08/08 00:48:16;;;;;;;2.83;2.33;;;16.20;99.90;;;;;;5037967;28;20238;-43
2021/08/08 00:50:46;;;;;;;3.03;2.10;;;16.10;99.90;;;;;;5039539;28;20208;-42
2021/08/08 00:53:16;;;;;;;2.30;2.20;;;16.10;99.90;;;;;;5038232;28;20187;-45
2021/08/08 00:55:44;;;;;;;5.90;2.37;;;16.10;99.90;;;;;;5041596;28;20199;-42
2021/08/08 00:58:13;;;;;;;3.43;2.23;;;16.10;99.90;;;;;;5037336;28;20200;-44
2021/08/08 01:00:47;;;;;;;2.63;2.27;;;16.10;99.90;;;;;;5025555;28;20239;-44
2021/08/08 01:03:17;;;;;;;5.43;2.57;;;16.00;99.90;;;;;;5041988;28;20286;-48
2021/08/08 01:05:51;;;;;;;5.73;2.50;;;16.00;99.90;;;;;;5045414;28;20199;-47
2021/08/08 01:08:26;;;;;;;4.20;2.30;;;16.00;99.90;;;;;;5043075;28;20214;-45
2021/08/08 01:10:55;;;;;;;2.73;2.50;;;16.00;99.90;;;;;;5043809;28;20203;-42
2021/08/08 01:13:24;;;;;;;3.93;2.40;;;15.90;99.90;;;;;;5043076;28;20245;-44
2021/08/08 01:15:52;;;;;;;2.77;2.57;;;16.00;99.90;;;;;;5030051;28;20563;-45
2021/08/08 01:18:20;;;;;;;5.83;2.93;;;15.90;99.90;;;;;;5041928;28;20293;-45
2021/08/08 01:20:50;;;;;;;4.40;2.50;;;15.80;99.90;;;;;;5042515;28;20816;-41
2021/08/08 01:23:20;;;;;;;3.20;2.90;;;15.70;99.90;;;;;;5042258;28;20191;-44
2021/08/08 01:25:49;;;;;;;4.30;2.80;;;15.70;99.90;;;;;;5046478;28;20591;-42
2021/08/08 01:28:18;;;;;;;3.20;2.90;;;15.70;99.90;;;;;;5041574;28;20251;-42
2021/08/08 01:30:46;;;;;;;4.77;2.93;;;15.70;99.90;;;;;;5030545;28;20216;-42
2021/08/08 01:33:13;;;;;;;3.63;2.53;;;15.70;99.90;;;;;;5041763;28;20179;-41
2021/08/08 01:35:46;;;;;;;5.53;2.73;;;15.60;99.90;;;;;;5045193;28;20206;-41
2021/08/08 01:38:16;;;;;;;3.10;2.87;;;15.60;99.90;;;;;;5041282;28;20926;-44
2021/08/08 01:40:50;;;;;;;3.10;2.60;;;15.50;99.90;;;;;;5044696;28;20199;-41
2021/08/08 01:43:26;;;;;;;3.63;3.00;;;15.50;99.90;;;;;;5044522;28;20195;-40
2021/08/08 01:46:03;;;;;;;4.13;2.93;;;15.40;99.90;;;;;;5057168;28;20199;-47
2021/08/08 01:48:32;;;;;;;3.33;2.97;;;15.40;99.90;;;;;;5045805;28;20272;-45
2021/08/08 01:51:01;;;;;;;4.77;3.10;;;15.30;99.90;;;;;;5049013;28;20554;-41
2021/08/08 01:53:28;;;;;;;2.77;2.50;;;15.30;99.90;;;;;;5048627;28;20183;-46
2021/08/08 01:55:56;;;;;;;3.00;2.80;;;15.20;99.90;;;;;;5048101;28;20546;-43
2021/08/08 01:58:27;;;;;;;4.40;2.90;;;15.10;99.90;;;;;;5046769;28;20203;-43
2021/08/08 02:00:55;;;;;;;2.83;2.63;;;15.10;99.90;;;;;;5042802;28;20289;-47
2021/08/08 02:03:33;;;;;;;3.13;2.93;;;15.10;99.90;;;;;;5022991;28;20203;-45
2021/08/08 02:06:01;;;;;;;3.17;2.87;;;15.00;99.90;;;;;;5041672;28;20256;-43
2021/08/08 02:08:27;;;;;;;3.57;3.27;;;15.00;99.90;;;;;;5042823;28;20323;-44
2021/08/08 02:11:10;;;;;;;2.90;2.70;;;14.90;99.90;;;;;;5040161;28;20925;-43
2021/08/08 02:13:42;;;;;;;6.50;3.03;;;14.90;99.90;;;;;;5043793;28;20198;-44
2021/08/08 02:16:09;;;;;;;4.50;2.77;;;14.90;99.90;;;;;;5040022;28;20219;-46
2021/08/08 02:18:37;;;;;;;4.67;3.03;;;14.90;99.90;;;;;;5023880;28;20696;-48
2021/08/08 02:21:04;;;;;;;3.20;3.00;;;14.90;99.90;;;;;;5040077;28;20203;-43
2021/08/08 02:23:32;;;;;;;3.60;2.60;;;14.90;99.90;;;;;;5043735;28;20282;-45
2021/08/08 02:26:02;;;;;;;3.60;2.63;;;14.90;99.90;;;;;;5041174;28;20227;-43
2021/08/08 02:28:33;;;;;;;3.50;3.13;;;14.90;99.90;;;;;;5043378;28;20219;-44
2021/08/08 02:31:00;;;;;;;4.43;3.27;;;14.90;99.90;;;;;;5041222;28;20253;-46
2021/08/08 02:33:28;;;;;;;3.47;2.67;;;14.80;99.90;;;;;;5031664;28;20215;-49
2021/08/08 02:35:59;;;;;;;2.77;2.57;;;14.80;99.90;;;;;;5049098;28;20200;-46
2021/08/08 02:38:30;;;;;;;3.33;2.90;;;14.80;99.90;;;;;;5047420;28;20196;-45
2021/08/08 02:41:01;;;;;;;3.43;3.20;;;14.70;99.90;;;;;;5041175;28;20191;-44
2021/08/08 02:43:28;;;;;;;5.43;3.23;;;14.60;99.90;;;;;;5042560;28;20187;-44
2021/08/08 02:45:57;;;;;;;4.63;3.00;;;14.60;99.90;;;;;;5042073;28;20191;-49
2021/08/08 02:48:23;;;;;;;4.53;3.57;;;14.60;99.90;;;;;;5026860;28;20219;-42
2021/08/08 02:50:50;;;;;;;3.43;2.77;;;14.60;99.90;;;;;;5042505;28;20306;-50
2021/08/08 02:53:20;;;;;;;4.47;3.47;;;14.50;99.90;;;;;;5040786;28;20191;-48
2021/08/08 02:55:47;;;;;;;3.47;3.00;;;14.50;99.90;;;;;;5043397;28;20278;-47
2021/08/08 02:58:13;;;;;;;4.47;3.60;;;14.40;99.90;;;;;;5039237;28;20208;-49
2021/08/08 03:00:41;;;;;;;3.43;3.23;;;14.50;99.90;;;;;;5042881;28;20621;-48
2021/08/08 03:03:10;;;;;;;3.80;3.23;;;14.50;99.90;;;;;;5023515;28;20208;-43
2021/08/08 03:05:37;;;;;;;4.17;3.17;;;14.50;99.90;;;;;;5042877;28;20262;-45
2021/08/08 03:08:06;;;;;;;3.07;2.83;;;14.40;99.90;;;;;;5040636;28;20216;-44
2021/08/08 03:10:33;;;;;;;4.83;3.00;;;14.40;99.90;;;;;;5042782;28;20211;-41
2021/08/08 03:13:00;;;;;;;3.33;3.07;;;14.40;99.90;;;;;;5041988;28;20270;-50
2021/08/08 03:15:28;;;;;;;3.30;3.03;;;14.30;99.90;;;;;;5041849;28;20195;-45
2021/08/08 03:17:55;;;;;;;4.27;3.50;;;14.30;99.90;;;;;;5041443;28;20222;-51
2021/08/08 03:20:23;;;;;;;4.10;3.40;;;14.30;99.90;;;;;;5024553;28;20871;-40
2021/08/08 03:22:53;;;;;;;3.30;3.10;;;14.30;99.90;;;;;;5041913;28;20580;-47
2021/08/08 03:25:20;;;;;;;4.40;2.90;;;14.20;99.90;;;;;;5039538;28;20282;-47
2021/08/08 03:27:50;;;;;;;2.97;2.77;;;14.20;99.90;;;;;;5042567;28;20221;-46
2021/08/08 03:30:18;;;;;;;3.43;2.57;;;14.20;99.90;;;;;;5039153;28;20265;-44
2021/08/08 03:32:45;;;;;;;3.33;2.70;;;14.20;99.90;;;;;;5043870;28;20188;-43
2021/08/08 03:35:12;;;;;;;3.53;2.60;;;14.20;99.90;;;;;;5022392;28;20207;-44
2021/08/08 03:37:40;;;;;;;3.93;2.80;;;14.20;99.90;;;;;;5039069;28;20851;-44
2021/08/08 03:40:09;;;;;;;2.90;2.60;;;14.20;99.90;;;;;;5038569;28;20218;-48
2021/08/08 03:42:36;;;;;;;3.50;2.27;;;14.20;99.90;;;;;;5042518;28;20248;-44
2021/08/08 03:45:04;;;;;;;3.33;2.30;;;14.20;99.90;;;;;;5040695;28;20179;-45
2021/08/08 03:47:33;;;;;;;2.57;2.37;;;14.20;99.90;;;;;;5042839;28;20211;-47
2021/08/08 03:50:00;;;;;;;2.60;2.40;;;14.20;99.90;;;;;;5037431;28;20215;-44
2021/08/08 03:52:27;;;;;;;2.60;2.40;;;14.30;99.90;;;;;;5041844;28;20187;-49
2021/08/08 03:54:55;;;;;;;3.00;2.80;;;14.30;99.90;;;;;;5044431;28;20202;-44
2021/08/08 03:57:21;;;;;;;3.93;2.50;;;14.30;99.90;;;;;;5039759;28;20805;-44
2021/08/08 03:59:48;;;;;;;4.00;2.10;;;14.30;99.90;;;;;;5041928;28;20629;-46
2021/08/08 04:02:15;;;;;;;4.40;2.63;;;14.30;99.90;;;;;;5038368;28;21281;-44
2021/08/08 04:04:42;;;;;;;3.00;2.10;;;14.30;99.90;;;;;;5042633;28;20669;-46
2021/08/08 04:07:10;;;;;;;4.27;2.33;;;14.40;99.90;;;;;;5026638;28;20199;-46
2021/08/08 04:09:37;;;;;;;2.70;2.50;;;14.40;99.90;;;;;;5045332;28;20215;-48
2021/08/08 04:12:08;;;;;;;4.50;2.57;;;14.40;99.90;;;;;;5041511;28;20270;-45
2021/08/08 04:14:36;;;;;;;2.73;2.43;;;14.40;99.90;;;;;;5042036;28;20223;-43
2021/08/08 04:17:03;;;;;;;3.73;2.77;;;14.50;99.90;;;;;;5039108;28;20724;-43
2021/08/08 04:19:29;;;;;;;3.77;2.60;;;14.50;99.90;;;;;;5042350;28;20184;-41
2021/08/08 04:21:56;;;;;;;2.93;2.60;;;14.60;99.90;;;;;;5032980;28;20214;-42
2021/08/08 04:24:23;;;;;;;3.40;2.23;;;14.60;99.90;;;;;;5044261;28;20916;-42
2021/08/08 04:26:50;;;;;;;3.17;2.60;;;14.60;99.90;;;;;;5041465;28;20187;-44
2021/08/08 04:29:19;;;;;;;4.10;2.80;;;14.60;99.90;;;;;;5038593;28;20246;-44
2021/08/08 04:31:45;;;;;;;3.27;2.67;;;14.70;99.90;;;;;;5043393;28;20200;-43
2021/08/08 04:34:12;;;;;;;2.33;2.10;;;14.70;99.90;;;;;;5037825;28;20195;-41
2021/08/08 04:36:38;;;;;;;2.87;2.67;;;14.70;99.90;;;;;;5044813;28;20244;-43
2021/08/08 04:39:05;;;;;;;3.37;2.53;;;14.70;99.90;;;;;;5026263;28;20222;-43
2021/08/08 04:41:32;;;;;;;5.07;2.93;;;14.80;99.90;;;;;;5045582;28;20195;-42
2021/08/08 04:43:59;;;;;;;2.73;2.50;;;14.80;99.90;;;;;;5043818;28;20199;-46
2021/08/08 04:46:27;;;;;;;3.23;2.47;;;14.80;99.90;;;;;;5044255;28;20841;-41
2021/08/08 04:48:54;;;;;;;3.30;2.90;;;14.90;99.90;;;;;;5046933;28;20223;-41
2021/08/08 04:51:20;;;;;;;2.73;2.30;;;14.90;99.90;;;;;;5045144;28;20310;-43
2021/08/08 04:53:47;;;;;;;3.30;3.00;;;15.00;99.90;;;;;;5031318;28;20210;-46
2021/08/08 04:56:13;;;;;;;4.17;2.43;;;15.00;99.90;;;;;;5042458;28;20251;-44
2021/08/08 04:58:40;;;;;;;7.17;2.47;;;15.10;99.90;;;;;;5050020;28;20571;-47
2021/08/08 05:01:07;;;;;;;2.30;2.10;;;15.10;99.90;;;;;;5046031;28;20188;-44
2021/08/08 05:03:35;;;;;;;2.83;2.30;;;15.20;99.90;;;;;;5045577;28;20217;-42
2021/08/08 05:06:05;;;;;;;1.83;1.70;;;15.20;99.90;;;;;;5043368;28;20206;-40
2021/08/08 05:08:32;;;;;;;4.50;2.50;;;15.30;99.90;;;;;;5049643;28;20242;-45
2021/08/08 05:10:59;;;;;;;3.60;2.50;;;15.30;99.90;;;;;;5027037;28;20200;-44
2021/08/08 05:13:28;;;;;;;2.53;2.33;;;15.30;99.90;;;;;;5043661;28;20192;-43
2021/08/08 05:15:56;;;;;;;2.60;2.20;;;15.40;99.90;;;;;;5044011;28;20685;-45
2021/08/08 05:18:23;;;;;;;4.47;1.77;;;15.40;99.90;;;;;;5044164;28;20210;-47
2021/08/08 05:20:51;;;;;;;5.07;2.20;;;15.40;99.90;;;;;;5045861;28;20605;-44
2021/08/08 05:23:18;;;;;;;4.57;1.97;;;15.50;99.90;;;;;;5042013;28;20188;-43
2021/08/08 05:25:45;;;;;;;6.20;2.30;;;15.50;99.90;;;;;;5030375;28;20222;-42
2021/08/08 05:28:12;;;;;;;3.20;1.97;;;15.50;99.90;;;;;;5043901;28;20211;-43
2021/08/08 05:30:38;;;;;;;2.30;1.73;;;15.60;99.90;;;;;;5049738;28;20692;-45
2021/08/08 05:33:05;;;;;;;2.77;1.90;;;15.60;99.90;;;;;;5046503;28;20188;-43
2021/08/08 05:35:32;;;;;;;2.57;2.30;;;15.60;99.90;;;;;;5049913;28;20195;-46
2021/08/08 05:38:00;;;;;;;4.83;2.00;;;15.60;99.90;;;;;;5047406;28;20219;-41
2021/08/08 05:40:27;;;;;;;2.33;2.07;;;15.70;99.90;;;;;;5024371;28;20288;-44
2021/08/08 05:42:53;;;;;;;4.33;2.27;;;15.70;99.90;;;;;;5044745;28;20210;-43
2021/08/08 05:45:22;;;;;;;3.20;1.97;;;15.70;99.90;;;;;;5041863;28;20183;-41
2021/08/08 05:47:49;;;;;;;2.33;2.13;;;15.80;99.90;;;;;;5043850;28;20589;-46
2021/08/08 05:50:18;;;;;;;3.53;2.30;;;15.80;99.90;;;;;;5041159;28;20261;-41
2021/08/08 05:52:49;;;;;;;2.87;2.10;;;15.80;99.90;;;;;;5044616;28;20195;-44
2021/08/08 05:55:17;;;;;;;2.37;2.13;;;15.90;99.90;;;;;;5026699;28;22462;-43
2021/08/08 05:57:43;;;;;;;3.23;1.90;;;15.90;99.90;;;;;;5044028;28;20211;-46
2021/08/08 06:00:11;;;;;;;4.23;1.93;;;15.90;99.90;;;;;;5040100;28;20249;-44
2021/08/08 06:02:42;;;;;;;2.37;2.20;;;16.00;99.90;;;;;;5045745;28;20257;-41
2021/08/08 06:05:11;;;;;;;4.43;2.30;;;16.00;99.90;;;;;;5040270;28;20183;-41
2021/08/08 06:07:38;;;;;;;2.63;2.23;;;16.00;99.90;;;;;;5044643;28;20269;-42
2021/08/08 06:10:06;;;;;;;2.60;2.40;;;16.00;99.90;;;;;;5040508;28;20247;-46
2021/08/08 06:12:35;;;;;;;2.47;2.27;;;16.00;99.90;;;;;;5028372;28;20257;-41
2021/08/08 06:15:01;;;;;;;2.43;2.27;;;16.00;99.90;;;;;;5044597;28;20191;-41
2021/08/08 06:17:31;;;;;;;2.20;2.10;;;16.00;99.90;;;;;;5045137;28;20269;-41
2021/08/08 06:19:58;;;;;;;2.93;2.20;;;16.00;99.90;;;;;;5042160;28;20184;-47
2021/08/08 06:22:25;;;;;;;3.03;2.60;;;15.90;99.90;;;;;;5042274;28;20199;-41
2021/08/08 06:24:52;;;;;;;2.80;2.60;;;15.80;99.90;;;;;;5043218;28;20281;-47
2021/08/08 06:27:18;;;;;;;4.53;2.47;;;15.70;99.90;;;;;;5023570;28;20219;-45
2021/08/08 06:29:46;;;;;;;2.77;2.50;;;15.60;99.90;;;;;;5042409;28;20229;-46
2021/08/08 06:32:13;;;;;;;3.20;2.80;;;15.50;99.90;;;;;;5039868;28;20203;-43
2021/08/08 06:34:42;;;;;;;2.80;2.60;;;15.50;99.90;;;;;;5045181;28;20291;-46
2021/08/08 06:37:08;;;;;;;4.53;3.67;;;15.40;99.90;;;;;;5041595;28;20195;-41
2021/08/08 06:39:35;;;;;;;3.20;3.00;;;15.40;99.90;;;;;;5051204;28;20184;-44
2021/08/08 06:42:01;;;;;;;3.53;3.20;;;15.40;99.90;;;;;;5041079;28;20200;-45
2021/08/08 06:44:34;;;;;;;5.20;3.30;;;15.40;99.90;;;;;;5026610;28;20207;-44
2021/08/08 06:47:03;;;;;;;3.23;3.03;;;15.50;99.90;;;;;;5048424;28;20202;-41
2021/08/08 06:49:30;;;;;;;3.20;3.00;;;15.50;99.90;;;;;;5046514;28;20241;-46
2021/08/08 06:51:56;;;;;;;3.07;2.83;;;15.60;99.90;;;;;;5040927;28;20196;-45
2021/08/08 06:54:24;;;;;;;3.43;3.13;;;15.60;99.90;;;;;;5041501;28;20851;-48
2021/08/08 06:56:51;;;;;;;3.07;2.73;;;15.60;99.90;;;;;;5043157;28;20187;-44
2021/08/08 06:59:17;;;;;;;3.13;2.77;;;15.70;99.90;;;;;;5022901;28;20248;-43
2021/08/08 07:01:44;;;;;;;3.13;2.93;;;15.70;99.90;;;;;;5043271;28;20564;-44
2021/08/08 07:04:12;;;;;;;3.30;3.10;;;15.70;99.90;;;;;;5040329;28;20179;-47
2021/08/08 07:06:39;;;;;;;3.63;3.33;;;15.70;99.90;;;;;;5044213;28;20545;-46
2021/08/08 07:09:07;;;;;;;3.73;3.50;;;15.70;99.90;;;;;;5039297;28;20617;-44
2021/08/08 07:11:35;;;;;;;3.00;2.83;;;15.70;99.90;;;;;;5042999;28;20195;-43
2021/08/08 07:14:02;;;;;;;4.00;3.60;;;15.70;99.90;;;;;;5025948;28;20207;-43
2021/08/08 07:16:29;;;;;;;3.97;3.57;;;15.70;99.90;;;;;;5046880;28;20191;-44
2021/08/08 07:18:57;;;;;;;4.40;3.93;;;15.70;99.90;;;;;;5040935;28;20294;-43
2021/08/08 07:21:25;;;;;;;4.83;3.90;;;15.70;99.90;;;;;;5040656;28;20295;-43
2021/08/08 07:23:52;;;;;;;4.60;4.20;;;15.80;99.90;;;;;;5042209;28;20215;-48
2021/08/08 07:26:19;;;;;;;4.60;4.20;;;15.80;99.90;;;;;;5041032;28;20194;-45
2021/08/08 07:28:45;;;;;;;8.20;3.87;;;15.90;99.90;;;;;;5024840;28;20224;-48
2021/08/08 07:31:12;;;;;;;4.63;4.27;;;15.90;99.90;;;;;;5039667;28;20990;-43
2021/08/08 07:33:39;;;;;;;3.67;3.47;;;16.00;99.90;;;;;;5042678;28;20614;-43
2021/08/08 07:36:06;;;;;;;4.00;3.70;;;16.00;99.90;;;;;;5040276;28;20206;-43
2021/08/08 07:38:34;;;;;;;4.00;3.70;;;16.10;99.90;;;;;;5047051;28;20673;-46
2021/08/08 07:41:01;;;;;;;4.23;3.83;;;16.10;99.90;;;;;;5039214;28;20552;-47
2021/08/08 07:43:28;;;;;;;4.33;3.97;;;16.00;99.90;;;;;;5041450;28;20184;-44
2021/08/08 07:45:55;;;;;;;4.07;3.67;;;16.00;99.90;;;;;;5026672;28;20207;-47
2021/08/08 07:48:21;;;;;;;5.43;3.93;;;16.00;99.90;;;;;;5039533;28;20314;-48
2021/08/08 07:50:48;;;;;;;4.03;3.73;;;16.00;99.90;;;;;;5043276;28;20219;-42
2021/08/08 07:53:15;;;;;;;4.13;3.83;;;16.00;99.90;;;;;;5040819;28;20219;-49
2021/08/08 07:55:43;;;;;;;4.27;3.97;;;16.00;99.90;;;;;;5047678;28;20196;-48
2021/08/08 07:58:10;;;;;;;3.80;3.50;;;16.10;99.90;;;;;;5040652;28;20200;-44
2021/08/08 08:00:37;;;;;;;4.13;3.83;;;16.00;99.90;;;;;;5032775;28;20203;-42
2021/08/08 08:03:05;;;;;;;4.30;3.90;;;16.00;99.90;;;;;;5044835;28;20804;-41
2021/08/08 08:05:32;;;;;;;4.07;3.77;;;16.00;99.90;;;;;;5048230;28;20611;-49
2021/08/08 08:07:59;;;;;;;4.07;3.77;;;15.90;99.90;;;;;;5046261;28;20215;-42
2021/08/08 08:10:29;;;;;;;4.67;4.27;;;15.90;99.90;;;;;;5046459;28;20215;-44
2021/08/08 08:12:57;;;;;;;4.30;3.90;;;15.90;99.90;;;;;;5046321;28;20708;-43
2021/08/08 08:15:24;;;;;;;4.63;4.23;;;15.90;99.90;;;;;;5048076;28;20248;-48
2021/08/08 08:17:51;;;;;;;5.70;4.97;;;15.80;99.90;;;;;;5033324;28;20219;-41
2021/08/08 08:20:18;;;;;;;5.93;5.30;;;15.80;99.90;;;;;;5040397;28;20861;-42
2021/08/08 08:22:45;;;;;;;5.73;5.10;;;15.80;99.90;;;;;;5039625;28;20195;-43
2021/08/08 08:25:12;;;;;;;5.53;5.13;;;15.80;99.90;;;;;;5038063;28;20285;-43
2021/08/08 08:27:39;;;;;;;5.80;5.30;;;15.80;99.90;;;;;;5042165;28;20265;-42
2021/08/08 08:30:08;;;;;;;5.83;5.37;;;15.90;99.90;;;;;;5037943;28;20211;-45
2021/08/08 08:32:35;;;;;;;5.90;5.40;;;15.90;99.90;;;;;;5026419;28;20668;-45
2021/08/08 08:35:03;;;;;;;6.20;5.80;;;15.90;99.90;;;;;;5039185;28;20199;-49
2021/08/08 08:37:31;;;;;;;6.27;5.53;;;16.00;99.90;;;;;;5041222;28;20224;-46
2021/08/08 08:39:57;;;;;;;6.43;5.93;;;16.00;99.90;;;;;;5039686;28;20183;-46
2021/08/08 08:42:27;;;;;;;6.10;5.57;;;16.00;99.90;;;;;;5039815;28;20191;-46
2021/08/08 08:44:54;;;;;;;7.30;6.60;;;16.10;99.90;;;;;;5045365;28;20225;-43
2021/08/08 08:47:23;;;;;;;6.87;6.27;;;16.10;99.90;;;;;;5029471;28;20219;-44
2021/08/08 08:49:56;;;;;;;6.23;5.83;;;16.10;99.90;;;;;;5040717;28;20212;-50
2021/08/08 08:52:25;;;;;;;7.87;6.50;;;16.20;99.90;;;;;;5039542;28;20304;-42
2021/08/08 08:54:52;;;;;;;6.80;6.20;;;16.20;99.90;;;;;;5041140;28;20767;-42
2021/08/08 08:57:19;;;;;;;7.10;6.37;;;16.30;99.90;;;;;;5038773;28;20207;-44
2021/08/08 08:59:47;;;;;;;8.87;6.83;;;16.30;99.90;;;;;;5041424;28;20218;-44
2021/08/08 09:02:14;;;;;;;7.20;6.50;;;16.30;99.90;;;;;;5027896;28;20336;-49
2021/08/08 09:04:43;;;;;;;6.90;6.50;;;16.40;99.90;;;;;;5048051;28;20594;-47
2021/08/08 09:07:10;;;;;;;7.93;6.47;;;16.50;99.90;;;;;;5043906;28;20875;-46
2021/08/08 09:09:38;;;;;;;6.70;6.20;;;16.50;99.90;;;;;;5042340;28;20559;-46
2021/08/08 09:12:07;;;;;;;7.53;6.37;;;16.50;99.90;;;;;;5037983;28;20223;-44
2021/08/08 09:14:36;;;;;;;6.97;6.13;;;16.60;99.90;;;;;;5045582;28;20215;-51
2021/08/08 09:17:04;;;;;;;6.43;5.93;;;16.70;99.90;;;;;;5035287;28;20195;-44
2021/08/08 09:19:36;;;;;;;7.00;6.27;;;16.80;99.90;;;;;;5044692;28;20202;-47
2021/08/08 09:22:07;;;;;;;6.10;5.37;;;16.90;99.90;;;;;;5053697;28;20199;-41
2021/08/08 09:24:41;;;;;;;8.03;6.13;;;17.10;99.90;;;;;;5049442;28;20651;-46
2021/08/08 09:27:13;;;;;;;6.70;6.10;;;17.20;99.90;;;;;;5041139;28;20191;-42
2021/08/08 09:29:45;;;;;;;8.70;5.80;;;17.30;99.90;;;;;;5044904;28;20203;-45
2021/08/08 09:32:14;;;;;;;6.27;5.67;;;17.30;99.90;;;;;;5044651;28;20863;-47
2021/08/08 09:34:42;;;;;;;6.73;5.77;;;17.30;99.90;;;;;;5030852;28;20211;-44
2021/08/08 09:37:18;;;;;;;7.33;5.97;;;17.30;99.90;;;;;;5041763;28;20191;-44
2021/08/08 09:39:45;;;;;;;6.17;5.40;;;17.30;99.90;;;;;;5045953;28;20195;-44
2021/08/08 09:42:14;;;;;;;5.50;5.00;;;17.30;99.90;;;;;;5040816;28;20260;-47
2021/08/08 09:44:54;;;;;;;5.67;5.00;;;17.20;99.90;;;;;;5046102;28;20249;-44
2021/08/08 09:47:21;;;;;;;6.20;5.70;;;17.20;99.90;;;;;;5043366;28;20211;-45
2021/08/08 09:49:59;;;;;;;6.70;5.50;;;17.20;99.90;;;;;;5026992;28;20204;-43
2021/08/08 09:52:27;;;;;;;6.93;5.43;;;17.20;99.90;;;;;;5044064;28;20197;-44
2021/08/08 09:54:54;;;;;;;6.50;5.87;;;17.30;99.90;;;;;;5045120;28;20680;-44
2021/08/08 09:57:20;;;;;;;8.63;6.53;;;17.40;99.90;;;;;;5043276;28;20810;-44
2021/08/08 09:59:48;;;;;;;10.20;7.07;;;17.40;99.90;;;;;;5045566;28;20194;-43
2021/08/08 10:02:19;;;;;;;8.17;6.60;;;17.50;99.90;;;;;;5041896;28;20188;-41
2021/08/08 10:04:45;;;;;;;6.90;6.00;;;17.50;99.90;;;;;;5045751;28;20191;-44
2021/08/08 10:07:13;;;;;;;7.67;5.77;;;17.50;99.90;;;;;;5025516;28;20210;-42
2021/08/08 10:09:41;;;;;;;13.20;7.63;;;17.50;99.90;;;;;;5045276;28;20202;-46
2021/08/08 10:12:21;;;;;;;7.77;6.60;;;17.40;99.90;;;;;;5041210;28;20218;-49
2021/08/08 10:14:51;;;;;;;8.37;6.80;;;17.40;99.90;;;;;;5050005;28;20230;-46
2021/08/08 10:17:19;;;;;;;10.37;7.10;;;17.40;99.90;;;;;;5046491;28;20203;-46
2021/08/08 10:19:47;;;;;;;9.10;6.67;;;17.40;99.90;;;;;;5049886;28;20192;-44
2021/08/08 10:22:18;;;;;;;11.07;7.17;;;17.50;99.90;;;;;;5030878;28;20207;-46
2021/08/08 10:24:48;;;;;;;7.57;6.77;;;17.50;99.90;;;;;;5047102;28;20679;-42
2021/08/08 10:27:21;;;;;;;9.50;6.23;;;17.60;99.90;;;;;;5041421;28;20211;-42
2021/08/08 10:29:48;;;;;;;8.00;5.97;;;17.60;99.90;;;;;;5045117;28;20195;-47
2021/08/08 10:32:15;;;;;;;9.67;6.97;;;17.60;99.90;;;;;;5041503;28;20203;-46
2021/08/08 10:34:42;;;;;;;7.40;6.47;;;17.60;99.90;;;;;;5045191;28;20657;-42
2021/08/08 10:37:12;;;;;;;13.47;6.97;;;17.50;99.90;;;;;;5025109;28;20215;-44
2021/08/08 10:39:41;;;;;;;7.10;6.40;;;17.50;99.90;;;;;;5050930;28;20202;-46
2021/08/08 10:42:10;;;;;;;12.40;6.57;;;17.40;99.90;;;;;;5046581;28;20191;-45
2021/08/08 10:44:46;;;;;;;11.17;6.83;;;17.40;99.90;;;;;;5044989;28;20196;-45
2021/08/08 10:47:24;;;;;;;11.77;6.47;;;17.40;99.90;;;;;;5040864;28;22064;-43
2021/08/08 10:49:51;;;;;;;8.67;6.27;;;17.30;99.90;;;;;;5043956;28;20192;-45
2021/08/08 10:52:17;;;;;;;9.43;6.47;;;17.50;99.90;;;;;;5025786;28;20293;-43
2021/08/08 10:54:46;;;;;;;9.07;6.27;;;17.60;99.90;;;;;;5044537;28;20655;-42
2021/08/08 10:57:15;;;;;;;7.53;6.67;;;17.80;99.90;;;;;;5040647;28;20214;-43
2021/08/08 10:59:44;;;;;;;12.27;6.50;;;18.00;99.90;;;;;;5044527;28;20270;-43
2021/08/08 11:02:12;;;;;;;7.57;5.83;;;18.00;99.90;;;;;;5040590;28;20275;-42
2021/08/08 11:04:38;;;;;;;8.13;6.03;;;18.10;99.90;;;;;;5044907;28;20206;-51
2021/08/08 11:07:06;;;;;;;9.63;5.70;;;18.20;99.90;;;;;;5046674;28;20191;-43
2021/08/08 11:09:35;;;;;;;10.23;6.37;;;18.30;99.90;;;;;;5028391;28;20227;-44
2021/08/08 11:12:02;;;;;;;7.27;5.33;;;18.40;99.90;;;;;;5033209;28;20219;-44
2021/08/08 11:14:31;;;;;;;8.23;5.30;;;18.40;99.90;;;;;;5043332;28;20222;-45
2021/08/08 11:17:03;;;;;;;7.50;6.20;;;18.40;99.90;;;;;;5042505;28;20214;-48
2021/08/08 11:19:35;;;;;;;13.27;6.00;;;18.40;99.90;;;;;;5043297;28;20197;-44
2021/08/08 11:22:09;;;;;;;11.73;5.70;;;18.40;99.90;;;;;;5036623;28;20195;-40
2021/08/08 11:24:36;;;;;;;11.60;5.33;;;18.40;99.90;;;;;;5033662;28;20203;-49
2021/08/08 11:27:04;;;;;;;9.10;5.80;;;18.50;99.90;;;;;;5046595;28;20568;-41
2021/08/08 11:29:33;;;;;;;9.50;5.90;;;18.50;99.90;;;;;;5045774;28;20285;-42
2021/08/08 11:32:01;;;;;;;9.70;5.87;;;18.50;99.90;;;;;;5041597;28;20215;-48
2021/08/08 11:34:29;;;;;;;8.20;4.63;;;18.50;99.90;;;;;;5042829;28;20179;-45
2021/08/08 11:36:57;;;;;;;9.97;4.97;;;18.60;99.90;;;;;;5042147;28;20668;-46
2021/08/08 11:39:32;;;;;;;7.83;5.40;;;18.60;99.90;;;;;;5026238;28;20210;-43
2021/08/08 11:42:03;;;;;;;12.73;5.87;;;18.60;99.90;;;;;;5041366;28;20202;-50
2021/08/08 11:44:39;;;;;;;10.07;5.30;;;18.70;99.90;;;;;;5042996;28;20187;-47
2021/08/08 11:47:06;;;;;;;8.43;4.53;;;18.70;99.90;;;;;;5039726;28;20207;-44
2021/08/08 11:49:43;;;;;;;7.73;5.07;;;18.60;99.90;;;;;;5043220;28;20191;-43
2021/08/08 11:52:13;;;;;;;9.30;4.60;;;18.70;99.90;;;;;;5032251;28;20214;-43
2021/08/08 11:54:39;;;;;;;5.03;4.47;;;18.70;99.90;;;;;;5043656;28;20219;-43
2021/08/08 11:57:07;;;;;;;7.77;4.60;;;18.80;99.90;;;;;;5023817;28;20200;-47
2021/08/08 11:59:34;;;;;;;8.00;4.33;;;18.90;99.90;;;;;;5043312;28;20195;-41
2021/08/08 12:02:05;;;;;;;7.53;4.50;;;19.00;99.90;;;;;;5040884;28;20183;-43
2021/08/08 12:04:34;;;;;;;7.27;4.90;;;19.20;99.90;;;;;;5043019;28;20557;-42
2021/08/08 12:07:03;;;;;;;4.47;4.10;;;19.40;99.90;;;;;;5040812;28;20191;-44
2021/08/08 12:09:30;;;;;;;6.03;3.70;;;19.60;99.90;;;;;;5042593;28;20183;-42
2021/08/08 12:11:58;;;;;;;7.70;4.33;;;19.80;99.90;;;;;;5024641;28;20219;-41
2021/08/08 12:14:33;;;;;;;4.67;3.83;;;19.90;99.90;;;;;;5047405;28;20914;-46
2021/08/08 12:17:06;;;;;;;7.33;3.87;;;19.80;99.90;;;;;;5047143;28;20552;-41
2021/08/08 12:19:34;;;;;;;7.07;3.90;;;19.80;99.90;;;;;;5046808;28;20205;-45
2021/08/08 12:22:03;;;;;;;10.50;3.90;;;19.80;99.90;;;;;;5042498;28;20202;-41
2021/08/08 12:24:35;;;;;;;6.97;4.13;;;19.70;99.90;;;;;;5047607;28;20202;-45
2021/08/08 12:27:02;;;;;;;7.10;3.93;;;19.80;99.90;;;;;;5024569;28;20261;-43
2021/08/08 12:29:31;;;;;;;4.90;3.33;;;19.90;99.90;;;;;;5041912;28;20253;-47
2021/08/08 12:32:12;;;;;;;6.80;3.77;;;20.00;99.90;;;;;;5041402;28;20223;-50
2021/08/08 12:34:38;;;;;;;6.73;4.30;;;20.00;99.90;;;;;;5043275;28;20661;-44
2021/08/08 12:37:07;;;;;;;6.77;3.37;;;20.00;99.90;;;;;;5039633;28;20198;-48
2021/08/08 12:39:34;;;;;;;7.37;3.57;;;19.90;99.90;;;;;;5042832;28;20195;-41
2021/08/08 12:42:02;;;;;;;4.80;3.53;;;19.80;99.90;;;;;;5020766;28;20256;-47
2021/08/08 12:44:34;;;;;;;5.77;3.40;;;19.80;99.90;;;;;;5042066;28;20195;-45
2021/08/08 12:47:02;;;;;;;5.93;3.30;;;19.90;99.90;;;;;;5040364;28;20196;-44
2021/08/08 12:49:37;;;;;;;3.83;2.83;;;20.00;99.90;;;;;;5041808;28;20191;-42
2021/08/08 12:52:05;;;;;;;4.50;2.53;;;20.30;99.90;;;;;;5031653;28;20207;-42